Gondan-466 — LEPE — position and weather

sailwx.info

Track history (hours):
 
Tides and Currents Weather Stations Pressure Air Temp Water Temp Dewpoint Dewpoint Depression Visibility Wind Speed Wind Dir Waves Ship Positions

Gondan-466

Last reported at 2018-Jan-19 19:27 UTC. Time now 2018-Jan-19 19:47 UTC.
Position N 70°41' E 023°35'.

Length 40 m; draft 5 m.

Type: Towing. MMSI: 225445000.

Date/timePositionNaut miles runAvg speedWind from/ knotsBaromVisibWave heightAir tempDewpointWater temp
2018-Jan-19 19:27N 70°41' E 023°35'0 0.0
2018-Jan-19 17:21N 70°41' E 023°35'0 0.0
2018-Jan-19 13:21N 70°41' E 023°35'0 0.0
2018-Jan-19 10:21N 70°41' E 023°35'0 0.0
2018-Jan-19 09:57N 70°41' E 023°35'0 0.0
2018-Jan-19 06:09N 70°41' E 023°35'0 0.0
2018-Jan-19 05:45N 70°41' E 023°35'0 0.0
2018-Jan-19 01:15N 70°41' E 023°35'0 0.0
2018-Jan-19 00:57N 70°41' E 023°35'0 0.0
2018-Jan-19 00:21N 70°41' E 023°35'0 0.0
2018-Jan-18 20:57N 70°41' E 023°35'0 0.0
2018-Jan-18 20:27N 70°41' E 023°35'0 0.0
2018-Jan-18 19:45N 70°41' E 023°35'0 0.0
2018-Jan-18 18:39N 70°41' E 023°35'0 0.0
2018-Jan-18 16:44N 70°41' E 023°35'0 0.0
2018-Jan-18 16:30N 70°41' E 023°35'0 0.3
2018-Jan-18 16:00N 70°41' E 023°36'0 0.3
2018-Jan-18 15:30N 70°41' E 023°36'0 0.1
2018-Jan-18 15:00N 70°41' E 023°36'0 0.7
2018-Jan-18 14:30N 70°41' E 023°37'0 0.2
2018-Jan-18 14:00N 70°41' E 023°36'3 6.5
2018-Jan-18 13:30N 70°37' E 023°39'1 0.4
2018-Jan-18 12:04N 70°38' E 023°39'0 0.0
2018-Jan-18 11:04N 70°38' E 023°39'0 0.0
2018-Jan-18 10:34N 70°38' E 023°39'0 0.0
2018-Jan-18 10:23N 70°38' E 023°39'0 0.0
2018-Jan-18 07:40N 70°38' E 023°39'0 0.0
2018-Jan-18 07:11N 70°38' E 023°39'0 0.0
2018-Jan-18 06:04N 70°38' E 023°39'0 0.0
2018-Jan-18 05:52N 70°38' E 023°39'0 0.0
2018-Jan-18 03:16N 70°38' E 023°39'0 0.0
2018-Jan-18 02:46N 70°38' E 023°39'  
2018-Jan-12 15:00N 70°41' E 023°37'0 0.6
2018-Jan-12 14:30N 70°40' E 023°37'0 0.4
2018-Jan-12 14:00N 70°41' E 023°36'3 5.1
2018-Jan-12 13:31N 70°38' E 023°37'1 0.1
2018-Jan-12 07:15N 70°38' E 023°39'0 0.0
2018-Jan-12 02:33N 70°38' E 023°39'0 0.0
2018-Jan-12 02:03N 70°38' E 023°39'0 0.0
2018-Jan-11 13:21N 70°38' E 023°39'0 0.0
2018-Jan-11 11:15N 70°38' E 023°39'0 0.0
2018-Jan-11 02:33N 70°38' E 023°39'0 0.0
2018-Jan-11 02:27N 70°38' E 023°39'0 0.0
2018-Jan-11 01:51N 70°38' E 023°39'0 0.0
2018-Jan-11 01:27N 70°38' E 023°39'0 0.0
2018-Jan-10 23:15N 70°38' E 023°39'0 0.0
2018-Jan-10 22:33N 70°38' E 023°39'0 0.0
2018-Jan-10 16:27N 70°38' E 023°39'0 0.0
2018-Jan-10 11:39N 70°38' E 023°39'0 0.0
2018-Jan-10 11:21N 70°38' E 023°39'0 0.0
2018-Jan-10 09:57N 70°38' E 023°39'0 0.0
2018-Jan-10 07:55N 70°38' E 023°39'0 0.0
2018-Jan-10 07:30N 70°38' E 023°39'  
Track history (hours):
 
Tides and Currents Weather Stations Pressure Air Temp Water Temp Dewpoint Dewpoint Depression Visibility Wind Speed Wind Dir Waves Ship Positions

Gondan-466

Last reported at 2018-Jan-19 19:27 UTC. Time now 2018-Jan-19 19:47 UTC.
Position N 70°41' E 023°35'.

Length 40 m; draft 5 m.

Type: Towing. MMSI: 225445000.

Date/timePositionNaut miles runAvg speedWind from/ knotsBaromVisibWave heightAir tempDewpointWater temp
2018-Jan-19 19:27N 70°41' E 023°35'0 0.0
2018-Jan-19 17:21N 70°41' E 023°35'0 0.0
2018-Jan-19 13:21N 70°41' E 023°35'0 0.0
2018-Jan-19 10:21N 70°41' E 023°35'0 0.0
2018-Jan-19 09:57N 70°41' E 023°35'0 0.0
2018-Jan-19 06:09N 70°41' E 023°35'0 0.0
2018-Jan-19 05:45N 70°41' E 023°35'0 0.0
2018-Jan-19 01:15N 70°41' E 023°35'0 0.0
2018-Jan-19 00:57N 70°41' E 023°35'0 0.0
2018-Jan-19 00:21N 70°41' E 023°35'0 0.0
2018-Jan-18 20:57N 70°41' E 023°35'0 0.0
2018-Jan-18 20:27N 70°41' E 023°35'0 0.0
2018-Jan-18 19:45N 70°41' E 023°35'0 0.0
2018-Jan-18 18:39N 70°41' E 023°35'0 0.0
2018-Jan-18 16:44N 70°41' E 023°35'0 0.0
2018-Jan-18 16:30N 70°41' E 023°35'0 0.3
2018-Jan-18 16:00N 70°41' E 023°36'0 0.3
2018-Jan-18 15:30N 70°41' E 023°36'0 0.1
2018-Jan-18 15:00N 70°41' E 023°36'0 0.7
2018-Jan-18 14:30N 70°41' E 023°37'0 0.2
2018-Jan-18 14:00N 70°41' E 023°36'3 6.5
2018-Jan-18 13:30N 70°37' E 023°39'1 0.4
2018-Jan-18 12:04N 70°38' E 023°39'0 0.0
2018-Jan-18 11:04N 70°38' E 023°39'0 0.0
2018-Jan-18 10:34N 70°38' E 023°39'0 0.0
2018-Jan-18 10:23N 70°38' E 023°39'0 0.0
2018-Jan-18 07:40N 70°38' E 023°39'0 0.0
2018-Jan-18 07:11N 70°38' E 023°39'0 0.0
2018-Jan-18 06:04N 70°38' E 023°39'0 0.0
2018-Jan-18 05:52N 70°38' E 023°39'0 0.0
2018-Jan-18 03:16N 70°38' E 023°39'0 0.0
2018-Jan-18 02:46N 70°38' E 023°39'  
2018-Jan-12 15:00N 70°41' E 023°37'0 0.6
2018-Jan-12 14:30N 70°40' E 023°37'0 0.4
2018-Jan-12 14:00N 70°41' E 023°36'3 5.1
2018-Jan-12 13:31N 70°38' E 023°37'1 0.1
2018-Jan-12 07:15N 70°38' E 023°39'0 0.0
2018-Jan-12 02:33N 70°38' E 023°39'0 0.0
2018-Jan-12 02:03N 70°38' E 023°39'0 0.0
2018-Jan-11 13:21N 70°38' E 023°39'0 0.0
2018-Jan-11 11:15N 70°38' E 023°39'0 0.0
2018-Jan-11 02:33N 70°38' E 023°39'0 0.0
2018-Jan-11 02:27N 70°38' E 023°39'0 0.0
2018-Jan-11 01:51N 70°38' E 023°39'0 0.0
2018-Jan-11 01:27N 70°38' E 023°39'0 0.0
2018-Jan-10 23:15N 70°38' E 023°39'0 0.0
2018-Jan-10 22:33N 70°38' E 023°39'0 0.0
2018-Jan-10 16:27N 70°38' E 023°39'0 0.0
2018-Jan-10 11:39N 70°38' E 023°39'0 0.0
2018-Jan-10 11:21N 70°38' E 023°39'0 0.0
2018-Jan-10 09:57N 70°38' E 023°39'0 0.0
2018-Jan-10 07:55N 70°38' E 023°39'0 0.0
2018-Jan-10 07:30N 70°38' E 023°39'  

Dump ship's entire track history